sensor_id;sensor_type;location;lat;lon;timestamp;temperature;humidity
7894;DHT22;51343;51.396;6.656;2022-11-20T00:07:24;-1.40;99.90
7894;DHT22;51343;51.396;6.656;2022-11-20T00:10:08;-1.40;99.90
7894;DHT22;51343;51.396;6.656;2022-11-20T00:19:21;-1.50;99.90
7894;DHT22;51343;51.396;6.656;2022-11-20T00:25:14;-1.50;99.90
7894;DHT22;51343;51.396;6.656;2022-11-20T00:28:31;-1.50;99.90
7894;DHT22;51343;51.396;6.656;2022-11-20T00:31:29;-1.50;99.90
7894;DHT22;51343;51.396;6.656;2022-11-20T00:37:28;-1.40;99.90
7894;DHT22;51343;51.396;6.656;2022-11-20T00:40:19;-1.50;99.90
7894;DHT22;51343;51.396;6.656;2022-11-20T00:43:23;-1.50;99.90
7894;DHT22;51343;51.396;6.656;2022-11-20T00:46:18;-1.60;99.90
7894;DHT22;51343;51.396;6.656;2022-11-20T00:49:11;-1.50;99.90
7894;DHT22;51343;51.396;6.656;2022-11-20T00:51:46;-1.50;99.90
7894;DHT22;51343;51.396;6.656;2022-11-20T01:46:35;-1.00;99.90
7894;DHT22;51343;51.396;6.656;2022-11-20T02:46:37;-0.10;99.90
7894;DHT22;51343;51.396;6.656;2022-11-20T02:49:04;-0.10;99.90
7894;DHT22;51343;51.396;6.656;2022-11-20T02:51:33;0.00;99.90
7894;DHT22;51343;51.396;6.656;2022-11-20T02:54:10;0.00;99.90
7894;DHT22;51343;51.396;6.656;2022-11-20T02:56:37;0.10;99.90
7894;DHT22;51343;51.396;6.656;2022-11-20T02:59:06;0.10;99.90
7894;DHT22;51343;51.396;6.656;2022-11-20T03:01:37;0.10;99.90
7894;DHT22;51343;51.396;6.656;2022-11-20T03:04:04;0.10;99.90
7894;DHT22;51343;51.396;6.656;2022-11-20T03:06:31;0.10;99.90
7894;DHT22;51343;51.396;6.656;2022-11-20T03:08:58;0.00;99.90
7894;DHT22;51343;51.396;6.656;2022-11-20T03:11:25;0.00;99.90
7894;DHT22;51343;51.396;6.656;2022-11-20T03:13:52;0.00;99.90
7894;DHT22;51343;51.396;6.656;2022-11-20T03:16:20;0.00;99.90
7894;DHT22;51343;51.396;6.656;2022-11-20T03:18:49;0.00;99.90
7894;DHT22;51343;51.396;6.656;2022-11-20T03:21:16;0.10;99.90
7894;DHT22;51343;51.396;6.656;2022-11-20T03:26:46;0.20;99.90
7894;DHT22;51343;51.396;6.656;2022-11-20T03:29:13;0.20;99.90
7894;DHT22;51343;51.396;6.656;2022-11-20T03:34:47;0.20;99.90
7894;DHT22;51343;51.396;6.656;2022-11-20T03:37:14;0.30;99.90
7894;DHT22;51343;51.396;6.656;2022-11-20T03:39:41;0.30;99.90
7894;DHT22;51343;51.396;6.656;2022-11-20T03:42:10;0.20;99.90
7894;DHT22;51343;51.396;6.656;2022-11-20T03:44:57;0.20;99.90
7894;DHT22;51343;51.396;6.656;2022-11-20T03:50:29;0.10;99.90
7894;DHT22;51343;51.396;6.656;2022-11-20T03:52:56;0.20;99.90
7894;DHT22;51343;51.396;6.656;2022-11-20T03:58:26;0.20;99.90
7894;DHT22;51343;51.396;6.656;2022-11-20T04:03:42;0.30;99.90
7894;DHT22;51343;51.396;6.656;2022-11-20T04:06:13;0.30;99.90
7894;DHT22;51343;51.396;6.656;2022-11-20T04:08:40;0.40;99.90
7894;DHT22;51343;51.396;6.656;2022-11-20T04:13:45;0.40;99.90
7894;DHT22;51343;51.396;6.656;2022-11-20T04:16:13;0.40;99.90
7894;DHT22;51343;51.396;6.656;2022-11-20T04:18:40;0.50;99.90
7894;DHT22;51343;51.396;6.656;2022-11-20T04:21:07;0.50;99.90
7894;DHT22;51343;51.396;6.656;2022-11-20T04:23:36;0.50;99.90
7894;DHT22;51343;51.396;6.656;2022-11-20T04:26:03;0.50;99.90
7894;DHT22;51343;51.396;6.656;2022-11-20T04:28:30;0.40;99.90
7894;DHT22;51343;51.396;6.656;2022-11-20T04:31:04;0.40;99.90
7894;DHT22;51343;51.396;6.656;2022-11-20T04:33:31;0.40;99.90
7894;DHT22;51343;51.396;6.656;2022-11-20T04:36:02;0.40;99.90
7894;DHT22;51343;51.396;6.656;2022-11-20T04:38:29;0.40;99.90
7894;DHT22;51343;51.396;6.656;2022-11-20T04:40:59;0.40;99.90
7894;DHT22;51343;51.396;6.656;2022-11-20T04:43:26;0.50;99.90
7894;DHT22;51343;51.396;6.656;2022-11-20T04:45:54;0.50;99.90
7894;DHT22;51343;51.396;6.656;2022-11-20T04:48:24;0.40;99.90
7894;DHT22;51343;51.396;6.656;2022-11-20T04:51:02;0.40;99.90
7894;DHT22;51343;51.396;6.656;2022-11-20T04:53:29;0.50;99.90
7894;DHT22;51343;51.396;6.656;2022-11-20T04:56:01;0.40;99.90
7894;DHT22;51343;51.396;6.656;2022-11-20T04:58:28;0.40;99.90
7894;DHT22;51343;51.396;6.656;2022-11-20T05:01:00;0.40;99.90
7894;DHT22;51343;51.396;6.656;2022-11-20T05:03:27;0.40;99.90
7894;DHT22;51343;51.396;6.656;2022-11-20T05:05:54;0.40;99.90
7894;DHT22;51343;51.396;6.656;2022-11-20T05:08:24;0.40;99.90
7894;DHT22;51343;51.396;6.656;2022-11-20T05:10:51;0.40;99.90
7894;DHT22;51343;51.396;6.656;2022-11-20T05:13:19;0.40;99.90
7894;DHT22;51343;51.396;6.656;2022-11-20T05:15:46;0.40;99.90
7894;DHT22;51343;51.396;6.656;2022-11-20T05:18:16;0.40;99.90
7894;DHT22;51343;51.396;6.656;2022-11-20T05:20:46;0.40;99.90
7894;DHT22;51343;51.396;6.656;2022-11-20T05:23:13;0.40;99.90
7894;DHT22;51343;51.396;6.656;2022-11-20T05:25:40;0.30;99.90
7894;DHT22;51343;51.396;6.656;2022-11-20T05:28:07;0.30;99.90
7894;DHT22;51343;51.396;6.656;2022-11-20T05:33:10;0.30;99.90
7894;DHT22;51343;51.396;6.656;2022-11-20T05:35:38;0.30;99.90
7894;DHT22;51343;51.396;6.656;2022-11-20T05:38:04;0.30;99.90
7894;DHT22;51343;51.396;6.656;2022-11-20T05:40:32;0.30;99.90
7894;DHT22;51343;51.396;6.656;2022-11-20T05:42:59;0.30;99.90
7894;DHT22;51343;51.396;6.656;2022-11-20T05:45:26;0.30;99.90
7894;DHT22;51343;51.396;6.656;2022-11-20T05:47:53;0.30;99.90
7894;DHT22;51343;51.396;6.656;2022-11-20T05:50:22;0.30;99.90
7894;DHT22;51343;51.396;6.656;2022-11-20T05:52:48;0.40;99.90
7894;DHT22;51343;51.396;6.656;2022-11-20T05:55:15;0.40;99.90
7894;DHT22;51343;51.396;6.656;2022-11-20T05:57:42;0.40;99.90
7894;DHT22;51343;51.396;6.656;2022-11-20T06:00:10;0.40;99.90
7894;DHT22;51343;51.396;6.656;2022-11-20T06:07:50;0.40;99.90
7894;DHT22;51343;51.396;6.656;2022-11-20T06:10:17;0.50;99.90
7894;DHT22;51343;51.396;6.656;2022-11-20T06:12:44;0.40;99.90
7894;DHT22;51343;51.396;6.656;2022-11-20T06:15:15;0.50;99.90
7894;DHT22;51343;51.396;6.656;2022-11-20T06:17:42;0.50;99.90
7894;DHT22;51343;51.396;6.656;2022-11-20T06:20:09;0.50;99.90
7894;DHT22;51343;51.396;6.656;2022-11-20T06:22:36;0.50;99.90
7894;DHT22;51343;51.396;6.656;2022-11-20T06:25:07;0.50;99.90
7894;DHT22;51343;51.396;6.656;2022-11-20T06:30:11;0.50;99.90
7894;DHT22;51343;51.396;6.656;2022-11-20T06:32:38;0.50;99.90
7894;DHT22;51343;51.396;6.656;2022-11-20T06:35:06;0.50;99.90
7894;DHT22;51343;51.396;6.656;2022-11-20T06:37:33;0.60;99.90
7894;DHT22;51343;51.396;6.656;2022-11-20T06:40:00;0.60;99.90
7894;DHT22;51343;51.396;6.656;2022-11-20T06:42:28;0.70;99.90
7894;DHT22;51343;51.396;6.656;2022-11-20T06:44:55;0.70;99.90
7894;DHT22;51343;51.396;6.656;2022-11-20T06:47:22;0.70;99.90
7894;DHT22;51343;51.396;6.656;2022-11-20T06:49:49;0.70;99.90
7894;DHT22;51343;51.396;6.656;2022-11-20T06:52:16;0.70;99.90
7894;DHT22;51343;51.396;6.656;2022-11-20T06:54:43;0.80;99.90
7894;DHT22;51343;51.396;6.656;2022-11-20T06:57:10;0.80;99.90
7894;DHT22;51343;51.396;6.656;2022-11-20T06:59:38;0.90;99.90
7894;DHT22;51343;51.396;6.656;2022-11-20T07:02:08;0.90;99.90
7894;DHT22;51343;51.396;6.656;2022-11-20T07:04:36;0.90;99.90
7894;DHT22;51343;51.396;6.656;2022-11-20T07:07:02;0.80;99.90
7894;DHT22;51343;51.396;6.656;2022-11-20T07:09:30;0.90;99.90
7894;DHT22;51343;51.396;6.656;2022-11-20T07:11:58;0.90;99.90
7894;DHT22;51343;51.396;6.656;2022-11-20T07:14:25;0.90;99.90
7894;DHT22;51343;51.396;6.656;2022-11-20T07:16:54;0.90;99.90
7894;DHT22;51343;51.396;6.656;2022-11-20T07:19:22;0.90;99.90
7894;DHT22;51343;51.396;6.656;2022-11-20T07:21:49;0.90;99.90
7894;DHT22;51343;51.396;6.656;2022-11-20T07:24:30;1.00;99.90
7894;DHT22;51343;51.396;6.656;2022-11-20T07:27:00;1.00;99.90
7894;DHT22;51343;51.396;6.656;2022-11-20T07:29:27;1.00;99.90
7894;DHT22;51343;51.396;6.656;2022-11-20T07:40:26;1.10;99.90
7894;DHT22;51343;51.396;6.656;2022-11-20T07:42:53;1.10;99.90
7894;DHT22;51343;51.396;6.656;2022-11-20T07:45:22;1.10;99.90
7894;DHT22;51343;51.396;6.656;2022-11-20T07:47:50;1.10;99.90
7894;DHT22;51343;51.396;6.656;2022-11-20T07:50:17;1.10;99.90
7894;DHT22;51343;51.396;6.656;2022-11-20T07:52:45;1.10;99.90
7894;DHT22;51343;51.396;6.656;2022-11-20T07:55:12;1.20;99.90
7894;DHT22;51343;51.396;6.656;2022-11-20T07:57:40;1.20;99.90
7894;DHT22;51343;51.396;6.656;2022-11-20T08:02:56;1.30;99.90
7894;DHT22;51343;51.396;6.656;2022-11-20T08:05:23;1.30;99.90
7894;DHT22;51343;51.396;6.656;2022-11-20T08:07:52;1.40;99.90
7894;DHT22;51343;51.396;6.656;2022-11-20T08:10:19;1.40;99.90
7894;DHT22;51343;51.396;6.656;2022-11-20T08:12:48;1.40;99.90
7894;DHT22;51343;51.396;6.656;2022-11-20T08:15:33;1.40;99.90
7894;DHT22;51343;51.396;6.656;2022-11-20T08:18:12;1.50;99.90
7894;DHT22;51343;51.396;6.656;2022-11-20T08:20:39;1.50;99.90
7894;DHT22;51343;51.396;6.656;2022-11-20T08:23:07;1.60;99.90
7894;DHT22;51343;51.396;6.656;2022-11-20T08:25:35;1.60;99.90
7894;DHT22;51343;51.396;6.656;2022-11-20T08:28:15;1.70;99.90
7894;DHT22;51343;51.396;6.656;2022-11-20T08:30:42;1.80;99.90
7894;DHT22;51343;51.396;6.656;2022-11-20T08:33:09;1.90;99.90
7894;DHT22;51343;51.396;6.656;2022-11-20T08:35:39;1.90;99.90
7894;DHT22;51343;51.396;6.656;2022-11-20T08:38:07;1.80;99.90
7894;DHT22;51343;51.396;6.656;2022-11-20T08:40:33;1.80;99.90
7894;DHT22;51343;51.396;6.656;2022-11-20T08:43:00;1.90;99.90
7894;DHT22;51343;51.396;6.656;2022-11-20T08:45:29;1.90;99.90
7894;DHT22;51343;51.396;6.656;2022-11-20T08:50:50;2.10;99.90
7894;DHT22;51343;51.396;6.656;2022-11-20T08:53:17;2.10;99.90
7894;DHT22;51343;51.396;6.656;2022-11-20T08:55:44;2.20;99.90
7894;DHT22;51343;51.396;6.656;2022-11-20T08:58:11;2.30;99.90
7894;DHT22;51343;51.396;6.656;2022-11-20T09:00:39;2.30;99.90
7894;DHT22;51343;51.396;6.656;2022-11-20T09:03:06;2.40;99.90
7894;DHT22;51343;51.396;6.656;2022-11-20T09:05:33;2.50;99.90
7894;DHT22;51343;51.396;6.656;2022-11-20T09:08:00;2.60;99.90
7894;DHT22;51343;51.396;6.656;2022-11-20T09:10:27;2.70;99.90
7894;DHT22;51343;51.396;6.656;2022-11-20T09:12:54;2.70;99.90
7894;DHT22;51343;51.396;6.656;2022-11-20T09:15:21;2.80;99.90
7894;DHT22;51343;51.396;6.656;2022-11-20T09:18:03;2.80;99.90
7894;DHT22;51343;51.396;6.656;2022-11-20T09:20:32;2.80;99.90
7894;DHT22;51343;51.396;6.656;2022-11-20T09:23:02;2.70;99.90
7894;DHT22;51343;51.396;6.656;2022-11-20T09:25:31;2.80;99.90
7894;DHT22;51343;51.396;6.656;2022-11-20T09:27:58;2.70;99.90
7894;DHT22;51343;51.396;6.656;2022-11-20T09:30:25;2.60;99.90
7894;DHT22;51343;51.396;6.656;2022-11-20T09:32:53;2.70;99.90
7894;DHT22;51343;51.396;6.656;2022-11-20T09:35:29;2.80;99.90
7894;DHT22;51343;51.396;6.656;2022-11-20T09:37:56;2.80;99.90
7894;DHT22;51343;51.396;6.656;2022-11-20T09:40:24;2.80;99.90
7894;DHT22;51343;51.396;6.656;2022-11-20T09:42:54;2.90;99.90
7894;DHT22;51343;51.396;6.656;2022-11-20T09:45:23;3.10;99.90
7894;DHT22;51343;51.396;6.656;2022-11-20T09:50:57;3.40;99.90
7894;DHT22;51343;51.396;6.656;2022-11-20T09:53:30;3.50;99.90
7894;DHT22;51343;51.396;6.656;2022-11-20T09:56:23;3.60;99.90
7894;DHT22;51343;51.396;6.656;2022-11-20T09:58:54;3.80;99.90
7894;DHT22;51343;51.396;6.656;2022-11-20T10:01:22;3.80;99.90
7894;DHT22;51343;51.396;6.656;2022-11-20T10:03:51;3.90;99.90
7894;DHT22;51343;51.396;6.656;2022-11-20T10:06:28;3.80;99.90
7894;DHT22;51343;51.396;6.656;2022-11-20T10:09:01;3.90;99.90
7894;DHT22;51343;51.396;6.656;2022-11-20T10:11:35;3.80;99.90
7894;DHT22;51343;51.396;6.656;2022-11-20T14:07:09;4.50;99.90
7894;DHT22;51343;51.396;6.656;2022-11-20T15:48:17;4.40;99.90
7894;DHT22;51343;51.396;6.656;2022-11-20T15:50:51;4.40;99.90
7894;DHT22;51343;51.396;6.656;2022-11-20T15:56:22;4.40;99.90
7894;DHT22;51343;51.396;6.656;2022-11-20T16:01:39;4.40;99.90
7894;DHT22;51343;51.396;6.656;2022-11-20T16:06:46;4.40;99.90
7894;DHT22;51343;51.396;6.656;2022-11-20T16:09:24;4.40;99.90
7894;DHT22;51343;51.396;6.656;2022-11-20T16:14:47;4.40;99.90
7894;DHT22;51343;51.396;6.656;2022-11-20T16:17:38;4.40;99.90
7894;DHT22;51343;51.396;6.656;2022-11-20T16:20:10;4.40;99.90
7894;DHT22;51343;51.396;6.656;2022-11-20T16:22:47;4.40;99.90
7894;DHT22;51343;51.396;6.656;2022-11-20T16:27:52;4.40;99.90
7894;DHT22;51343;51.396;6.656;2022-11-20T16:35:27;4.50;99.90
7894;DHT22;51343;51.396;6.656;2022-11-20T16:37:56;4.50;99.90
7894;DHT22;51343;51.396;6.656;2022-11-20T16:40:23;4.50;99.90
7894;DHT22;51343;51.396;6.656;2022-11-20T16:42:54;4.50;99.90
7894;DHT22;51343;51.396;6.656;2022-11-20T16:45:23;4.50;99.90
7894;DHT22;51343;51.396;6.656;2022-11-20T16:47:51;4.60;99.90
7894;DHT22;51343;51.396;6.656;2022-11-20T16:50:18;4.60;99.90
7894;DHT22;51343;51.396;6.656;2022-11-20T16:52:50;4.60;99.90
7894;DHT22;51343;51.396;6.656;2022-11-20T16:58:22;4.60;99.90
7894;DHT22;51343;51.396;6.656;2022-11-20T17:00:55;4.60;99.90
7894;DHT22;51343;51.396;6.656;2022-11-20T17:03:22;4.60;99.90
7894;DHT22;51343;51.396;6.656;2022-11-20T17:05:49;4.60;99.90
7894;DHT22;51343;51.396;6.656;2022-11-20T17:08:26;4.70;99.90
7894;DHT22;51343;51.396;6.656;2022-11-20T17:10:54;4.70;99.90
7894;DHT22;51343;51.396;6.656;2022-11-20T17:13:30;4.70;99.90
7894;DHT22;51343;51.396;6.656;2022-11-20T17:16:03;4.70;99.90
7894;DHT22;51343;51.396;6.656;2022-11-20T17:18:32;4.80;99.90
7894;DHT22;51343;51.396;6.656;2022-11-20T17:21:07;4.80;99.90
7894;DHT22;51343;51.396;6.656;2022-11-20T17:23:35;4.80;99.90
7894;DHT22;51343;51.396;6.656;2022-11-20T17:26:14;4.90;99.90
7894;DHT22;51343;51.396;6.656;2022-11-20T17:28:53;4.80;99.90
7894;DHT22;51343;51.396;6.656;2022-11-20T17:31:31;4.90;99.90
7894;DHT22;51343;51.396;6.656;2022-11-20T17:33:59;4.90;99.90
7894;DHT22;51343;51.396;6.656;2022-11-20T17:36:26;5.00;99.90
7894;DHT22;51343;51.396;6.656;2022-11-20T17:38:53;4.90;99.90
7894;DHT22;51343;51.396;6.656;2022-11-20T17:41:21;5.00;99.90
7894;DHT22;51343;51.396;6.656;2022-11-20T17:43:48;5.00;99.90
7894;DHT22;51343;51.396;6.656;2022-11-20T17:46:16;5.00;99.90
7894;DHT22;51343;51.396;6.656;2022-11-20T17:48:45;5.00;99.90
7894;DHT22;51343;51.396;6.656;2022-11-20T17:51:15;5.10;99.90
7894;DHT22;51343;51.396;6.656;2022-11-20T17:53:42;5.10;99.90
7894;DHT22;51343;51.396;6.656;2022-11-20T17:56:11;5.10;99.90
7894;DHT22;51343;51.396;6.656;2022-11-20T17:58:56;5.10;99.90
7894;DHT22;51343;51.396;6.656;2022-11-20T18:01:24;5.10;99.90
7894;DHT22;51343;51.396;6.656;2022-11-20T18:03:51;5.20;99.90
7894;DHT22;51343;51.396;6.656;2022-11-20T18:06:18;5.30;99.90
7894;DHT22;51343;51.396;6.656;2022-11-20T18:08:45;5.30;99.90
7894;DHT22;51343;51.396;6.656;2022-11-20T18:11:13;5.30;99.90
7894;DHT22;51343;51.396;6.656;2022-11-20T18:13:40;5.30;99.90
7894;DHT22;51343;51.396;6.656;2022-11-20T18:16:28;5.40;99.90
7894;DHT22;51343;51.396;6.656;2022-11-20T18:18:55;5.50;99.90
7894;DHT22;51343;51.396;6.656;2022-11-20T18:21:25;5.50;99.90
7894;DHT22;51343;51.396;6.656;2022-11-20T18:23:53;5.60;99.90
7894;DHT22;51343;51.396;6.656;2022-11-20T18:26:20;5.60;99.90
7894;DHT22;51343;51.396;6.656;2022-11-20T18:28:49;5.70;99.90
7894;DHT22;51343;51.396;6.656;2022-11-20T18:31:16;5.70;99.90
7894;DHT22;51343;51.396;6.656;2022-11-20T18:33:44;5.70;99.90
7894;DHT22;51343;51.396;6.656;2022-11-20T18:36:14;5.80;99.90
7894;DHT22;51343;51.396;6.656;2022-11-20T18:38:42;5.80;99.90
7894;DHT22;51343;51.396;6.656;2022-11-20T18:41:09;5.90;99.90
7894;DHT22;51343;51.396;6.656;2022-11-20T18:43:57;5.90;99.90
7894;DHT22;51343;51.396;6.656;2022-11-20T18:46:41;5.90;99.90
7894;DHT22;51343;51.396;6.656;2022-11-20T18:49:09;6.00;99.90
7894;DHT22;51343;51.396;6.656;2022-11-20T18:51:37;6.00;99.90
7894;DHT22;51343;51.396;6.656;2022-11-20T18:54:04;6.00;99.90
7894;DHT22;51343;51.396;6.656;2022-11-20T18:56:31;6.10;99.90
7894;DHT22;51343;51.396;6.656;2022-11-20T18:58:58;6.20;99.90
7894;DHT22;51343;51.396;6.656;2022-11-20T19:01:25;6.20;99.90
7894;DHT22;51343;51.396;6.656;2022-11-20T19:03:53;6.30;99.90
7894;DHT22;51343;51.396;6.656;2022-11-20T19:06:21;6.30;99.90
7894;DHT22;51343;51.396;6.656;2022-11-20T19:08:48;6.30;99.90
7894;DHT22;51343;51.396;6.656;2022-11-20T19:11:16;6.30;99.90
7894;DHT22;51343;51.396;6.656;2022-11-20T19:13:43;6.30;99.90
7894;DHT22;51343;51.396;6.656;2022-11-20T19:16:12;6.40;99.90
7894;DHT22;51343;51.396;6.656;2022-11-20T19:18:39;6.40;99.90
7894;DHT22;51343;51.396;6.656;2022-11-20T19:21:07;6.50;99.90
7894;DHT22;51343;51.396;6.656;2022-11-20T19:23:35;6.50;99.90
7894;DHT22;51343;51.396;6.656;2022-11-20T19:26:02;6.70;99.90
7894;DHT22;51343;51.396;6.656;2022-11-20T19:28:29;6.70;99.90
7894;DHT22;51343;51.396;6.656;2022-11-20T19:31:00;6.80;99.90
7894;DHT22;51343;51.396;6.656;2022-11-20T19:33:27;6.80;99.90
7894;DHT22;51343;51.396;6.656;2022-11-20T19:35:55;6.90;99.90
7894;DHT22;51343;51.396;6.656;2022-11-20T19:38:23;6.90;99.90
7894;DHT22;51343;51.396;6.656;2022-11-20T19:40:51;7.00;99.90
7894;DHT22;51343;51.396;6.656;2022-11-20T19:43:18;7.00;99.90
7894;DHT22;51343;51.396;6.656;2022-11-20T19:45:44;7.00;99.90
7894;DHT22;51343;51.396;6.656;2022-11-20T19:48:12;7.00;99.90
7894;DHT22;51343;51.396;6.656;2022-11-20T19:50:38;7.10;99.90
7894;DHT22;51343;51.396;6.656;2022-11-20T19:53:05;7.10;99.90
7894;DHT22;51343;51.396;6.656;2022-11-20T19:55:31;7.10;99.90
7894;DHT22;51343;51.396;6.656;2022-11-20T19:58:00;7.10;99.90
7894;DHT22;51343;51.396;6.656;2022-11-20T20:00:28;7.10;99.90
7894;DHT22;51343;51.396;6.656;2022-11-20T20:02:55;7.10;99.90
7894;DHT22;51343;51.396;6.656;2022-11-20T20:05:22;7.10;99.90
7894;DHT22;51343;51.396;6.656;2022-11-20T20:07:49;7.10;99.90
7894;DHT22;51343;51.396;6.656;2022-11-20T20:10:16;7.10;99.90
7894;DHT22;51343;51.396;6.656;2022-11-20T20:12:44;7.00;99.90
7894;DHT22;51343;51.396;6.656;2022-11-20T20:15:14;7.10;99.90
7894;DHT22;51343;51.396;6.656;2022-11-20T20:17:41;7.10;99.90
7894;DHT22;51343;51.396;6.656;2022-11-20T20:20:09;7.00;99.90
7894;DHT22;51343;51.396;6.656;2022-11-20T20:22:36;7.00;99.90
7894;DHT22;51343;51.396;6.656;2022-11-20T20:25:02;7.00;99.90
7894;DHT22;51343;51.396;6.656;2022-11-20T20:27:29;7.00;99.90
7894;DHT22;51343;51.396;6.656;2022-11-20T20:29:56;6.90;99.90
7894;DHT22;51343;51.396;6.656;2022-11-20T20:32:24;6.90;99.90
7894;DHT22;51343;51.396;6.656;2022-11-20T20:34:51;6.90;99.90
7894;DHT22;51343;51.396;6.656;2022-11-20T20:37:18;6.90;99.90
7894;DHT22;51343;51.396;6.656;2022-11-20T20:39:44;6.80;99.90
7894;DHT22;51343;51.396;6.656;2022-11-20T20:42:11;6.80;99.90
7894;DHT22;51343;51.396;6.656;2022-11-20T20:44:38;6.70;99.90
7894;DHT22;51343;51.396;6.656;2022-11-20T20:47:22;6.70;99.90
7894;DHT22;51343;51.396;6.656;2022-11-20T20:49:50;6.70;99.90
7894;DHT22;51343;51.396;6.656;2022-11-20T20:52:17;6.60;99.90
7894;DHT22;51343;51.396;6.656;2022-11-20T20:54:43;6.60;99.90
7894;DHT22;51343;51.396;6.656;2022-11-20T20:57:10;6.50;99.90
7894;DHT22;51343;51.396;6.656;2022-11-20T20:59:37;6.50;99.90
7894;DHT22;51343;51.396;6.656;2022-11-20T21:02:03;6.40;99.90
7894;DHT22;51343;51.396;6.656;2022-11-20T21:04:30;6.40;99.90
7894;DHT22;51343;51.396;6.656;2022-11-20T21:06:59;6.30;99.90
7894;DHT22;51343;51.396;6.656;2022-11-20T21:09:26;6.30;99.90
7894;DHT22;51343;51.396;6.656;2022-11-20T21:11:55;6.30;99.90
7894;DHT22;51343;51.396;6.656;2022-11-20T21:14:21;6.30;99.90
7894;DHT22;51343;51.396;6.656;2022-11-20T21:16:49;6.20;99.90
7894;DHT22;51343;51.396;6.656;2022-11-20T21:19:16;6.20;99.90
7894;DHT22;51343;51.396;6.656;2022-11-20T21:21:43;6.20;99.90
7894;DHT22;51343;51.396;6.656;2022-11-20T21:24:25;6.20;99.90
7894;DHT22;51343;51.396;6.656;2022-11-20T21:26:52;6.10;99.90
7894;DHT22;51343;51.396;6.656;2022-11-20T21:29:19;6.10;99.90
7894;DHT22;51343;51.396;6.656;2022-11-20T21:31:46;6.00;99.90
7894;DHT22;51343;51.396;6.656;2022-11-20T21:34:13;6.00;99.90
7894;DHT22;51343;51.396;6.656;2022-11-20T21:36:40;6.00;99.90
7894;DHT22;51343;51.396;6.656;2022-11-20T21:39:08;5.90;99.90
7894;DHT22;51343;51.396;6.656;2022-11-20T21:41:37;5.90;99.90
7894;DHT22;51343;51.396;6.656;2022-11-20T21:44:05;5.80;99.90
7894;DHT22;51343;51.396;6.656;2022-11-20T21:46:32;5.80;99.90
7894;DHT22;51343;51.396;6.656;2022-11-20T21:48:59;5.70;99.90
7894;DHT22;51343;51.396;6.656;2022-11-20T21:51:26;5.70;99.90
7894;DHT22;51343;51.396;6.656;2022-11-20T21:53:53;5.70;99.90
7894;DHT22;51343;51.396;6.656;2022-11-20T21:56:21;5.70;99.90
7894;DHT22;51343;51.396;6.656;2022-11-20T21:58:49;5.70;99.90
7894;DHT22;51343;51.396;6.656;2022-11-20T22:01:18;5.60;99.90
7894;DHT22;51343;51.396;6.656;2022-11-20T22:03:46;5.60;99.90
7894;DHT22;51343;51.396;6.656;2022-11-20T22:06:13;5.50;99.90
7894;DHT22;51343;51.396;6.656;2022-11-20T22:08:40;5.50;99.90
7894;DHT22;51343;51.396;6.656;2022-11-20T22:11:07;5.40;99.90
7894;DHT22;51343;51.396;6.656;2022-11-20T22:13:34;5.30;99.90
7894;DHT22;51343;51.396;6.656;2022-11-20T22:16:19;5.30;99.90
7894;DHT22;51343;51.396;6.656;2022-11-20T22:18:48;5.20;99.90
7894;DHT22;51343;51.396;6.656;2022-11-20T22:21:15;5.20;99.90
7894;DHT22;51343;51.396;6.656;2022-11-20T22:23:42;5.10;99.90
7894;DHT22;51343;51.396;6.656;2022-11-20T22:26:10;5.10;99.90
7894;DHT22;51343;51.396;6.656;2022-11-20T22:28:37;5.10;99.90
7894;DHT22;51343;51.396;6.656;2022-11-20T22:31:04;5.00;99.90
7894;DHT22;51343;51.396;6.656;2022-11-20T22:33:33;5.00;99.90
7894;DHT22;51343;51.396;6.656;2022-11-20T22:36:00;4.90;99.90
7894;DHT22;51343;51.396;6.656;2022-11-20T22:38:27;4.90;99.90
7894;DHT22;51343;51.396;6.656;2022-11-20T22:40:59;4.80;99.90
7894;DHT22;51343;51.396;6.656;2022-11-20T22:43:26;4.70;99.90
7894;DHT22;51343;51.396;6.656;2022-11-20T22:45:53;4.70;99.90
7894;DHT22;51343;51.396;6.656;2022-11-20T22:48:20;4.60;99.90
7894;DHT22;51343;51.396;6.656;2022-11-20T22:50:50;4.60;99.90
7894;DHT22;51343;51.396;6.656;2022-11-20T22:53:17;4.60;99.90
7894;DHT22;51343;51.396;6.656;2022-11-20T22:55:47;4.60;99.90
7894;DHT22;51343;51.396;6.656;2022-11-20T22:58:14;4.60;99.90
7894;DHT22;51343;51.396;6.656;2022-11-20T23:00:41;4.60;99.90
7894;DHT22;51343;51.396;6.656;2022-11-20T23:03:07;4.60;99.90
7894;DHT22;51343;51.396;6.656;2022-11-20T23:05:34;4.60;99.90
7894;DHT22;51343;51.396;6.656;2022-11-20T23:08:02;4.60;99.90
7894;DHT22;51343;51.396;6.656;2022-11-20T23:10:29;4.60;99.90
7894;DHT22;51343;51.396;6.656;2022-11-20T23:12:56;4.50;99.90
7894;DHT22;51343;51.396;6.656;2022-11-20T23:15:23;4.50;99.90
7894;DHT22;51343;51.396;6.656;2022-11-20T23:17:50;4.50;99.90
7894;DHT22;51343;51.396;6.656;2022-11-20T23:20:16;4.50;99.90
7894;DHT22;51343;51.396;6.656;2022-11-20T23:22:43;4.50;99.90
7894;DHT22;51343;51.396;6.656;2022-11-20T23:25:11;4.40;99.90
7894;DHT22;51343;51.396;6.656;2022-11-20T23:27:38;4.40;99.90
7894;DHT22;51343;51.396;6.656;2022-11-20T23:30:06;4.40;99.90
7894;DHT22;51343;51.396;6.656;2022-11-20T23:32:34;4.30;99.90
7894;DHT22;51343;51.396;6.656;2022-11-20T23:35:01;4.30;99.90
7894;DHT22;51343;51.396;6.656;2022-11-20T23:37:27;4.30;99.90
7894;DHT22;51343;51.396;6.656;2022-11-20T23:39:54;4.20;99.90
7894;DHT22;51343;51.396;6.656;2022-11-20T23:42:22;4.20;99.90
7894;DHT22;51343;51.396;6.656;2022-11-20T23:44:49;4.20;99.90
7894;DHT22;51343;51.396;6.656;2022-11-20T23:47:15;4.20;99.90
7894;DHT22;51343;51.396;6.656;2022-11-20T23:49:42;4.20;99.90
7894;DHT22;51343;51.396;6.656;2022-11-20T23:52:08;4.20;99.90
7894;DHT22;51343;51.396;6.656;2022-11-20T23:54:35;4.20;99.90
7894;DHT22;51343;51.396;6.656;2022-11-20T23:57:02;4.20;99.90
7894;DHT22;51343;51.396;6.656;2022-11-20T23:59:30;4.10;99.90
